sensor_id;sensor_type;location;lat;lon;timestamp;pressure;altitude;pressure_sealevel;temperature;humidity
47636;BME280;33364;50.766;15.338;2022-12-04T00:01:25;94999.16;;;1.62;100.00
47636;BME280;33364;50.766;15.338;2022-12-04T00:03:52;94996.44;;;1.65;100.00
47636;BME280;33364;50.766;15.338;2022-12-04T00:06:20;94997.22;;;1.67;100.00
47636;BME280;33364;50.766;15.338;2022-12-04T00:08:47;95004.78;;;1.69;100.00
47636;BME280;33364;50.766;15.338;2022-12-04T00:11:14;95000.69;;;1.66;100.00
47636;BME280;33364;50.766;15.338;2022-12-04T00:13:41;95002.41;;;1.66;100.00
47636;BME280;33364;50.766;15.338;2022-12-04T00:16:10;94998.78;;;1.70;100.00
47636;BME280;33364;50.766;15.338;2022-12-04T00:18:36;95001.34;;;1.70;100.00
47636;BME280;33364;50.766;15.338;2022-12-04T00:21:03;94992.03;;;1.69;100.00
47636;BME280;33364;50.766;15.338;2022-12-04T00:23:30;94995.69;;;1.63;100.00
47636;BME280;33364;50.766;15.338;2022-12-04T00:26:11;95002.41;;;1.66;100.00
47636;BME280;33364;50.766;15.338;2022-12-04T00:28:37;95003.22;;;1.66;100.00
47636;BME280;33364;50.766;15.338;2022-12-04T00:31:08;95003.06;;;1.69;100.00
47636;BME280;33364;50.766;15.338;2022-12-04T00:33:35;94995.56;;;1.66;100.00
47636;BME280;33364;50.766;15.338;2022-12-04T00:36:03;94999.63;;;1.70;100.00
47636;BME280;33364;50.766;15.338;2022-12-04T00:38:29;95008.16;;;1.69;100.00
47636;BME280;33364;50.766;15.338;2022-12-04T00:40:55;95004.72;;;1.70;100.00
47636;BME280;33364;50.766;15.338;2022-12-04T00:43:22;95002.88;;;1.74;100.00
47636;BME280;33364;50.766;15.338;2022-12-04T00:45:48;95003.47;;;1.79;100.00
47636;BME280;33364;50.766;15.338;2022-12-04T00:48:14;95000.84;;;1.80;100.00
47636;BME280;33364;50.766;15.338;2022-12-04T00:50:39;94990.72;;;1.79;100.00
47636;BME280;33364;50.766;15.338;2022-12-04T00:53:06;95000.19;;;1.77;100.00
47636;BME280;33364;50.766;15.338;2022-12-04T00:55:31;95002.78;;;1.75;100.00
47636;BME280;33364;50.766;15.338;2022-12-04T00:57:57;95001.97;;;1.75;100.00
47636;BME280;33364;50.766;15.338;2022-12-04T01:00:22;95007.06;;;1.75;100.00
47636;BME280;33364;50.766;15.338;2022-12-04T01:02:48;94993.91;;;1.84;100.00
47636;BME280;33364;50.766;15.338;2022-12-04T01:05:14;94992.38;;;1.80;100.00
47636;BME280;33364;50.766;15.338;2022-12-04T01:07:40;94991.63;;;1.78;100.00
47636;BME280;33364;50.766;15.338;2022-12-04T01:10:09;94990.81;;;1.77;100.00
47636;BME280;33364;50.766;15.338;2022-12-04T01:12:36;94991.63;;;1.78;100.00
47636;BME280;33364;50.766;15.338;2022-12-04T01:15:02;94983.06;;;1.79;100.00
47636;BME280;33364;50.766;15.338;2022-12-04T01:17:28;94979.63;;;1.80;100.00
47636;BME280;33364;50.766;15.338;2022-12-04T01:19:53;94990.31;;;1.88;100.00
47636;BME280;33364;50.766;15.338;2022-12-04T01:22:19;94979.38;;;1.86;100.00
47636;BME280;33364;50.766;15.338;2022-12-04T01:24:44;94979.38;;;1.86;100.00
47636;BME280;33364;50.766;15.338;2022-12-04T01:27:10;94971.75;;;1.85;100.00
47636;BME280;33364;50.766;15.338;2022-12-04T01:29:36;94975.91;;;1.87;100.00
47636;BME280;33364;50.766;15.338;2022-12-04T01:32:02;94970.03;;;1.85;100.00
47636;BME280;33364;50.766;15.338;2022-12-04T01:34:28;94966.59;;;1.86;100.00
47636;BME280;33364;50.766;15.338;2022-12-04T01:36:53;94964.19;;;1.83;100.00
47636;BME280;33364;50.766;15.338;2022-12-04T01:39:19;94977.56;;;1.88;100.00
47636;BME280;33364;50.766;15.338;2022-12-04T01:41:45;94979.97;;;1.91;100.00
47636;BME280;33364;50.766;15.338;2022-12-04T01:44:23;94976.66;;;1.89;100.00
47636;BME280;33364;50.766;15.338;2022-12-04T01:46:51;94969.91;;;1.88;100.00
47636;BME280;33364;50.766;15.338;2022-12-04T01:49:38;94971.47;;;1.91;100.00
47636;BME280;33364;50.766;15.338;2022-12-04T01:52:10;94966.31;;;1.92;100.00
47636;BME280;33364;50.766;15.338;2022-12-04T01:54:44;94961.94;;;1.94;100.00
47636;BME280;33364;50.766;15.338;2022-12-04T01:57:19;94961.91;;;1.96;100.00
47636;BME280;33364;50.766;15.338;2022-12-04T01:59:50;94966.84;;;1.99;100.00
47636;BME280;33364;50.766;15.338;2022-12-04T02:02:22;94969.41;;;1.99;100.00
47636;BME280;33364;50.766;15.338;2022-12-04T02:04:48;94957.53;;;1.98;100.00
47636;BME280;33364;50.766;15.338;2022-12-04T02:07:15;94966.94;;;1.97;100.00
47636;BME280;33364;50.766;15.338;2022-12-04T02:09:41;94961.00;;;1.97;100.00
47636;BME280;33364;50.766;15.338;2022-12-04T02:12:31;94969.47;;;1.97;100.00
47636;BME280;33364;50.766;15.338;2022-12-04T02:18:01;94970.59;;;1.92;100.00
47636;BME280;33364;50.766;15.338;2022-12-04T02:20:42;94974.78;;;1.93;100.00
47636;BME280;33364;50.766;15.338;2022-12-04T02:31:43;94946.41;;;1.99;100.00
47636;BME280;33364;50.766;15.338;2022-12-04T02:37:12;94953.88;;;2.03;100.00
47636;BME280;33364;50.766;15.338;2022-12-04T02:40:04;94958.84;;;2.06;100.00
47636;BME280;33364;50.766;15.338;2022-12-04T02:42:50;94949.66;;;2.02;100.00
47636;BME280;33364;50.766;15.338;2022-12-04T02:45:24;94954.78;;;2.02;100.00
47636;BME280;33364;50.766;15.338;2022-12-04T02:47:52;94952.13;;;2.04;100.00
47636;BME280;33364;50.766;15.338;2022-12-04T02:50:20;94954.00;;;2.00;100.00
47636;BME280;33364;50.766;15.338;2022-12-04T02:53:06;94945.59;;;1.98;100.00
47636;BME280;33364;50.766;15.338;2022-12-04T02:55:40;94953.13;;;2.01;100.00
47636;BME280;33364;50.766;15.338;2022-12-04T02:58:12;94936.91;;;2.02;100.00
47636;BME280;33364;50.766;15.338;2022-12-04T03:00:41;94941.94;;;2.04;100.00
47636;BME280;33364;50.766;15.338;2022-12-04T03:03:13;94948.91;;;2.00;100.00
47636;BME280;33364;50.766;15.338;2022-12-04T03:05:50;94947.19;;;2.01;100.00
47636;BME280;33364;50.766;15.338;2022-12-04T03:08:22;94943.88;;;1.99;100.00
47636;BME280;33364;50.766;15.338;2022-12-04T03:10:54;94928.25;;;2.05;100.00
47636;BME280;33364;50.766;15.338;2022-12-04T03:13:41;94935.19;;;2.03;100.00
47636;BME280;33364;50.766;15.338;2022-12-04T03:16:14;94934.28;;;2.04;100.00
47636;BME280;33364;50.766;15.338;2022-12-04T03:18:43;94931.59;;;2.07;100.00
47636;BME280;33364;50.766;15.338;2022-12-04T03:21:17;94928.94;;;2.08;100.00
47636;BME280;33364;50.766;15.338;2022-12-04T03:24:05;94936.47;;;2.12;100.00
47636;BME280;33364;50.766;15.338;2022-12-04T03:26:47;94937.13;;;2.15;100.00
47636;BME280;33364;50.766;15.338;2022-12-04T03:30:12;94940.75;;;2.11;100.00
47636;BME280;33364;50.766;15.338;2022-12-04T03:32:27;94939.63;;;2.17;100.00
47636;BME280;33364;50.766;15.338;2022-12-04T03:42:42;94944.44;;;2.23;100.00
47636;BME280;33364;50.766;15.338;2022-12-04T03:45:15;94940.84;;;2.27;100.00
47636;BME280;33364;50.766;15.338;2022-12-04T03:47:52;94951.81;;;2.29;100.00
47636;BME280;33364;50.766;15.338;2022-12-04T03:50:48;94949.34;;;2.27;100.00
47636;BME280;33364;50.766;15.338;2022-12-04T03:53:17;94946.69;;;2.29;100.00
47636;BME280;33364;50.766;15.338;2022-12-04T03:58:41;94943.91;;;2.33;100.00
47636;BME280;33364;50.766;15.338;2022-12-04T04:01:09;94948.28;;;2.31;100.00
47636;BME280;33364;50.766;15.338;2022-12-04T04:03:45;94948.94;;;2.35;100.00
47636;BME280;33364;50.766;15.338;2022-12-04T04:06:16;94949.63;;;2.39;100.00
47636;BME280;33364;50.766;15.338;2022-12-04T04:08:47;94951.06;;;2.44;100.00
47636;BME280;33364;50.766;15.338;2022-12-04T04:11:21;94954.53;;;2.43;100.00
47636;BME280;33364;50.766;15.338;2022-12-04T04:14:04;94952.88;;;2.42;100.00
47636;BME280;33364;50.766;15.338;2022-12-04T04:16:58;94961.50;;;2.40;100.00
47636;BME280;33364;50.766;15.338;2022-12-04T04:19:47;94954.75;;;2.39;100.00
47636;BME280;33364;50.766;15.338;2022-12-04T04:22:34;94953.84;;;2.40;100.00
47636;BME280;33364;50.766;15.338;2022-12-04T04:25:20;94956.56;;;2.37;100.00
47636;BME280;33364;50.766;15.338;2022-12-04T04:27:53;94960.84;;;2.36;100.00
47636;BME280;33364;50.766;15.338;2022-12-04T04:30:19;94952.31;;;2.36;100.00
47636;BME280;33364;50.766;15.338;2022-12-04T04:32:50;94953.09;;;2.38;100.00
47636;BME280;33364;50.766;15.338;2022-12-04T04:35:23;94947.09;;;2.39;100.00
47636;BME280;33364;50.766;15.338;2022-12-04T04:38:15;94951.97;;;2.43;100.00
47636;BME280;33364;50.766;15.338;2022-12-04T04:40:54;94952.88;;;2.42;100.00
47636;BME280;33364;50.766;15.338;2022-12-04T04:43:34;94954.38;;;2.46;100.00
47636;BME280;33364;50.766;15.338;2022-12-04T04:46:04;94947.59;;;2.45;100.00
47636;BME280;33364;50.766;15.338;2022-12-04T04:48:35;94951.97;;;2.43;100.00
47636;BME280;33364;50.766;15.338;2022-12-04T04:51:03;94952.66;;;2.47;100.00
47636;BME280;33364;50.766;15.338;2022-12-04T04:53:34;94938.88;;;2.49;100.00
47636;BME280;33364;50.766;15.338;2022-12-04T04:56:03;94934.31;;;2.56;100.00
47636;BME280;33364;50.766;15.338;2022-12-04T04:58:29;94952.50;;;2.50;100.00
47636;BME280;33364;50.766;15.338;2022-12-04T05:01:01;94946.25;;;2.55;100.00
47636;BME280;33364;50.766;15.338;2022-12-04T05:03:27;94947.06;;;2.56;100.00
47636;BME280;33364;50.766;15.338;2022-12-04T05:05:53;94951.31;;;2.57;100.00
47636;BME280;33364;50.766;15.338;2022-12-04T05:08:19;94949.72;;;2.54;100.00
47636;BME280;33364;50.766;15.338;2022-12-04T05:10:45;94945.66;;;2.50;100.00
47636;BME280;33364;50.766;15.338;2022-12-04T05:13:12;94952.44;;;2.51;100.00
47636;BME280;33364;50.766;15.338;2022-12-04T05:15:38;94935.28;;;2.53;100.00
47636;BME280;33364;50.766;15.338;2022-12-04T05:18:04;94941.81;;;2.59;100.00
47636;BME280;33364;50.766;15.338;2022-12-04T05:20:30;94948.59;;;2.60;100.00
47636;BME280;33364;50.766;15.338;2022-12-04T05:22:56;94959.84;;;2.56;100.00
47636;BME280;33364;50.766;15.338;2022-12-04T05:25:22;94949.78;;;2.53;100.00
47636;BME280;33364;50.766;15.338;2022-12-04T05:27:47;94954.13;;;2.51;100.00
47636;BME280;33364;50.766;15.338;2022-12-04T05:30:15;94949.94;;;2.50;100.00
47636;BME280;33364;50.766;15.338;2022-12-04T05:32:41;94960.09;;;2.51;100.00
47636;BME280;33364;50.766;15.338;2022-12-04T05:35:06;94950.94;;;2.47;100.00
47636;BME280;33364;50.766;15.338;2022-12-04T05:37:35;94949.72;;;2.54;100.00
47636;BME280;33364;50.766;15.338;2022-12-04T05:40:02;94941.91;;;2.57;100.00
47636;BME280;33364;50.766;15.338;2022-12-04T05:42:28;94948.66;;;2.58;100.00
47636;BME280;33364;50.766;15.338;2022-12-04T05:44:54;94951.97;;;2.60;100.00
47636;BME280;33364;50.766;15.338;2022-12-04T05:47:19;94936.63;;;2.60;100.00
47636;BME280;33364;50.766;15.338;2022-12-04T05:49:45;94934.84;;;2.63;100.00
47636;BME280;33364;50.766;15.338;2022-12-04T05:52:11;94938.44;;;2.58;100.00
47636;BME280;33364;50.766;15.338;2022-12-04T05:54:37;94942.50;;;2.63;100.00
47636;BME280;33364;50.766;15.338;2022-12-04T05:57:02;94931.47;;;2.62;100.00
47636;BME280;33364;50.766;15.338;2022-12-04T05:59:28;94925.53;;;2.62;100.00
47636;BME280;33364;50.766;15.338;2022-12-04T06:01:55;94924.72;;;2.61;100.00
47636;BME280;33364;50.766;15.338;2022-12-04T06:04:21;94921.16;;;2.64;100.00
47636;BME280;33364;50.766;15.338;2022-12-04T06:06:46;94928.09;;;2.62;100.00
47636;BME280;33364;50.766;15.338;2022-12-04T06:09:12;94930.56;;;2.63;100.00
47636;BME280;33364;50.766;15.338;2022-12-04T06:11:39;94921.16;;;2.64;100.00
47636;BME280;33364;50.766;15.338;2022-12-04T06:14:07;94928.00;;;2.63;100.00
47636;BME280;33364;50.766;15.338;2022-12-04T06:16:36;94930.47;;;2.65;100.00
47636;BME280;33364;50.766;15.338;2022-12-04T06:19:09;94930.78;;;2.58;100.00
47636;BME280;33364;50.766;15.338;2022-12-04T06:21:37;94947.84;;;2.58;100.00
47636;BME280;33364;50.766;15.338;2022-12-04T06:24:04;94936.03;;;2.55;100.00
47636;BME280;33364;50.766;15.338;2022-12-04T06:26:29;94952.13;;;2.57;100.00
47636;BME280;33364;50.766;15.338;2022-12-04T06:28:57;94947.97;;;2.55;100.00
47636;BME280;33364;50.766;15.338;2022-12-04T06:31:24;94945.44;;;2.55;100.00
47636;BME280;33364;50.766;15.338;2022-12-04T06:33:55;94942.22;;;2.51;100.00
47636;BME280;33364;50.766;15.338;2022-12-04T06:36:21;94944.69;;;2.53;100.00
47636;BME280;33364;50.766;15.338;2022-12-04T06:38:48;94953.91;;;2.55;100.00
47636;BME280;33364;50.766;15.338;2022-12-04T06:41:16;94951.31;;;2.57;100.00
47636;BME280;33364;50.766;15.338;2022-12-04T06:43:43;94955.88;;;2.50;100.00
47636;BME280;33364;50.766;15.338;2022-12-04T06:46:20;94949.13;;;2.49;100.00
47636;BME280;33364;50.766;15.338;2022-12-04T06:48:47;94951.75;;;2.48;100.00
47636;BME280;33364;50.766;15.338;2022-12-04T06:51:19;94957.00;;;2.45;100.00
47636;BME280;33364;50.766;15.338;2022-12-04T06:53:45;94954.44;;;2.45;100.00
47636;BME280;33364;50.766;15.338;2022-12-04T06:56:14;94950.75;;;2.50;100.00
47636;BME280;33364;50.766;15.338;2022-12-04T06:58:50;94953.78;;;2.58;100.00
47636;BME280;33364;50.766;15.338;2022-12-04T07:01:19;94947.63;;;2.63;100.00
47636;BME280;33364;50.766;15.338;2022-12-04T07:03:46;94954.97;;;2.69;100.00
47636;BME280;33364;50.766;15.338;2022-12-04T07:06:26;94948.91;;;2.71;100.00
47636;BME280;33364;50.766;15.338;2022-12-04T07:08:54;94944.31;;;2.78;100.00
47636;BME280;33364;50.766;15.338;2022-12-04T07:11:22;94948.97;;;2.87;100.00
47636;BME280;33364;50.766;15.338;2022-12-04T07:13:49;94952.56;;;2.83;100.00
47636;BME280;33364;50.766;15.338;2022-12-04T07:16:17;94959.91;;;2.89;100.00
47636;BME280;33364;50.766;15.338;2022-12-04T07:18:44;94955.50;;;2.93;100.00
47636;BME280;33364;50.766;15.338;2022-12-04T07:21:13;94960.66;;;2.91;100.00
47636;BME280;33364;50.766;15.338;2022-12-04T07:23:40;94958.78;;;2.95;100.00
47636;BME280;33364;50.766;15.338;2022-12-04T07:26:11;94961.28;;;2.96;100.00
47636;BME280;33364;50.766;15.338;2022-12-04T07:28:38;94954.50;;;2.95;100.00
47636;BME280;33364;50.766;15.338;2022-12-04T07:31:09;94962.03;;;2.98;100.00
47636;BME280;33364;50.766;15.338;2022-12-04T07:33:36;94964.56;;;2.98;100.00
47636;BME280;33364;50.766;15.338;2022-12-04T07:36:04;94964.56;;;2.98;100.00
47636;BME280;33364;50.766;15.338;2022-12-04T07:38:32;94968.47;;;3.05;100.00
47636;BME280;33364;50.766;15.338;2022-12-04T07:41:00;94965.84;;;3.07;100.00
47636;BME280;33364;50.766;15.338;2022-12-04T07:43:27;94965.16;;;3.03;100.00
47636;BME280;33364;50.766;15.338;2022-12-04T07:45:53;94973.66;;;3.04;100.00
47636;BME280;33364;50.766;15.338;2022-12-04T07:48:19;94976.72;;;3.10;100.00
47636;BME280;33364;50.766;15.338;2022-12-04T07:50:45;94976.72;;;3.10;100.00
47636;BME280;33364;50.766;15.338;2022-12-04T07:53:11;94981.69;;;3.14;100.00
47636;BME280;33364;50.766;15.338;2022-12-04T07:55:36;94978.00;;;3.19;100.00
47636;BME280;33364;50.766;15.338;2022-12-04T07:58:02;94973.56;;;3.23;100.00
47636;BME280;33364;50.766;15.338;2022-12-04T08:00:28;94976.94;;;3.23;100.00
47636;BME280;33364;50.766;15.338;2022-12-04T08:02:54;94977.63;;;3.27;100.00
47636;BME280;33364;50.766;15.338;2022-12-04T08:05:20;94965.44;;;3.32;100.00
47636;BME280;33364;50.766;15.338;2022-12-04T08:07:45;94970.00;;;3.25;100.00
47636;BME280;33364;50.766;15.338;2022-12-04T08:10:11;94973.38;;;3.26;100.00
47636;BME280;33364;50.766;15.338;2022-12-04T08:12:37;94969.72;;;3.31;100.00
47636;BME280;33364;50.766;15.338;2022-12-04T08:15:03;94968.63;;;3.35;100.00
47636;BME280;33364;50.766;15.338;2022-12-04T08:17:30;94976.97;;;3.39;100.00
47636;BME280;33364;50.766;15.338;2022-12-04T08:19:55;94970.03;;;3.41;100.00
47636;BME280;33364;50.766;15.338;2022-12-04T08:22:21;94986.31;;;3.40;100.00
47636;BME280;33364;50.766;15.338;2022-12-04T08:24:47;94990.69;;;3.38;100.00
47636;BME280;33364;50.766;15.338;2022-12-04T08:27:12;94993.25;;;3.38;100.00
47636;BME280;33364;50.766;15.338;2022-12-04T08:29:38;94996.72;;;3.37;100.00
47636;BME280;33364;50.766;15.338;2022-12-04T08:32:04;94994.06;;;3.38;100.00
47636;BME280;33364;50.766;15.338;2022-12-04T08:34:30;95004.22;;;3.40;100.00
47636;BME280;33364;50.766;15.338;2022-12-04T08:36:56;94996.63;;;3.38;100.00
47636;BME280;33364;50.766;15.338;2022-12-04T08:39:21;95010.16;;;3.41;100.00
47636;BME280;33364;50.766;15.338;2022-12-04T08:41:47;94997.31;;;3.42;100.00
47636;BME280;33364;50.766;15.338;2022-12-04T08:44:13;95001.59;;;3.42;100.00
47636;BME280;33364;50.766;15.338;2022-12-04T08:46:39;95003.16;;;3.44;100.00
47636;BME280;33364;50.766;15.338;2022-12-04T08:49:04;94996.31;;;3.45;100.00
47636;BME280;33364;50.766;15.338;2022-12-04T08:51:31;94996.66;;;3.54;100.00
47636;BME280;33364;50.766;15.338;2022-12-04T08:54:02;95009.59;;;3.51;100.00
47636;BME280;33364;50.766;15.338;2022-12-04T08:56:28;95007.88;;;3.52;100.00
47636;BME280;33364;50.766;15.338;2022-12-04T08:58:55;95023.16;;;3.53;100.00
47636;BME280;33364;50.766;15.338;2022-12-04T09:01:22;95018.78;;;3.55;100.00
47636;BME280;33364;50.766;15.338;2022-12-04T09:03:48;95005.25;;;3.53;100.00
47636;BME280;33364;50.766;15.338;2022-12-04T09:06:16;95011.28;;;3.52;100.00
47636;BME280;33364;50.766;15.338;2022-12-04T09:08:41;95013.59;;;3.57;100.00
47636;BME280;33364;50.766;15.338;2022-12-04T09:13:33;95015.00;;;3.62;100.00
47636;BME280;33364;50.766;15.338;2022-12-04T09:16:03;95011.06;;;3.73;100.00
47636;BME280;33364;50.766;15.338;2022-12-04T09:18:29;95006.09;;;3.70;100.00
47636;BME280;33364;50.766;15.338;2022-12-04T09:20:56;95002.47;;;3.74;100.00
47636;BME280;33364;50.766;15.338;2022-12-04T09:23:23;94999.75;;;3.77;100.00
47636;BME280;33364;50.766;15.338;2022-12-04T09:25:49;94990.34;;;3.77;100.00
47636;BME280;33364;50.766;15.338;2022-12-04T09:28:14;94987.94;;;3.74;100.00
47636;BME280;33364;50.766;15.338;2022-12-04T09:30:40;94987.78;;;3.77;100.00
47636;BME280;33364;50.766;15.338;2022-12-04T09:33:06;94977.59;;;3.76;100.00
47636;BME280;33364;50.766;15.338;2022-12-04T09:35:31;94974.88;;;3.79;100.00
47636;BME280;33364;50.766;15.338;2022-12-04T09:37:58;94973.16;;;3.79;100.00
47636;BME280;33364;50.766;15.338;2022-12-04T09:40:27;94973.06;;;3.81;100.00
47636;BME280;33364;50.766;15.338;2022-12-04T09:43:03;94972.66;;;3.88;100.00
47636;BME280;33364;50.766;15.338;2022-12-04T09:45:41;94959.03;;;3.88;100.00
47636;BME280;33364;50.766;15.338;2022-12-04T09:48:11;94962.44;;;3.88;100.00
47636;BME280;33364;50.766;15.338;2022-12-04T09:50:42;94961.09;;;3.97;100.00
47636;BME280;33364;50.766;15.338;2022-12-04T09:53:15;94949.84;;;4.00;100.00
47636;BME280;33364;50.766;15.338;2022-12-04T09:58:37;94957.78;;;4.11;100.00
47636;BME280;33364;50.766;15.338;2022-12-04T10:01:04;94938.88;;;4.13;100.00
47636;BME280;33364;50.766;15.338;2022-12-04T10:03:30;94946.94;;;4.22;100.00
47636;BME280;33364;50.766;15.338;2022-12-04T10:08:44;94952.56;;;4.28;100.00
47636;BME280;33364;50.766;15.338;2022-12-04T10:20:15;94951.88;;;4.40;100.00
47636;BME280;33364;50.766;15.338;2022-12-04T10:22:56;94945.00;;;4.41;100.00
47636;BME280;33364;50.766;15.338;2022-12-04T10:25:25;94946.00;;;4.38;100.00
47636;BME280;33364;50.766;15.338;2022-12-04T10:28:26;94938.88;;;4.44;100.00
47636;BME280;33364;50.766;15.338;2022-12-04T10:30:59;94947.03;;;4.50;100.00
47636;BME280;33364;50.766;15.338;2022-12-04T10:33:37;94929.09;;;4.50;100.00
47636;BME280;33364;50.766;15.338;2022-12-04T10:36:09;94932.34;;;4.54;100.00
47636;BME280;33364;50.766;15.338;2022-12-04T10:38:51;94943.25;;;4.57;100.00
47636;BME280;33364;50.766;15.338;2022-12-04T10:41:24;94924.03;;;4.64;100.00
47636;BME280;33364;50.766;15.338;2022-12-04T10:43:51;94927.25;;;4.68;100.00
47636;BME280;33364;50.766;15.338;2022-12-04T10:46:25;94925.41;;;4.70;100.00
47636;BME280;33364;50.766;15.338;2022-12-04T10:48:57;94922.19;;;4.66;100.00
47636;BME280;33364;50.766;15.338;2022-12-04T10:51:24;94924.75;;;4.66;100.00
47636;BME280;33364;50.766;15.338;2022-12-04T10:53:50;94925.31;;;4.72;100.00
47636;BME280;33364;50.766;15.338;2022-12-04T10:56:19;94929.63;;;4.71;100.00
47636;BME280;33364;50.766;15.338;2022-12-04T10:59:03;94926.97;;;4.87;99.69
47636;BME280;33364;50.766;15.338;2022-12-04T11:01:32;94928.47;;;4.91;99.74
47636;BME280;33364;50.766;15.338;2022-12-04T11:04:01;94929.28;;;4.91;99.52
47636;BME280;33364;50.766;15.338;2022-12-04T11:06:28;94925.28;;;4.87;99.73
47636;BME280;33364;50.766;15.338;2022-12-04T11:08:55;94922.69;;;4.87;99.59
47636;BME280;33364;50.766;15.338;2022-12-04T11:11:27;94919.13;;;4.90;99.40
47636;BME280;33364;50.766;15.338;2022-12-04T11:14:13;94921.69;;;4.90;99.77
47636;BME280;33364;50.766;15.338;2022-12-04T11:16:43;94924.16;;;4.91;99.15
47636;BME280;33364;50.766;15.338;2022-12-04T11:19:29;94925.06;;;4.90;99.55
47636;BME280;33364;50.766;15.338;2022-12-04T11:21:58;94924.25;;;4.90;98.99
47636;BME280;33364;50.766;15.338;2022-12-04T11:24:38;94926.09;;;4.88;98.82
47636;BME280;33364;50.766;15.338;2022-12-04T11:27:06;94925.63;;;4.96;99.09
47636;BME280;33364;50.766;15.338;2022-12-04T11:29:43;94928.69;;;5.02;98.58
47636;BME280;33364;50.766;15.338;2022-12-04T11:32:23;94923.63;;;5.01;98.69
47636;BME280;33364;50.766;15.338;2022-12-04T11:34:51;94929.66;;;5.00;98.49
47636;BME280;33364;50.766;15.338;2022-12-04T11:37:25;94917.94;;;5.10;97.89
47636;BME280;33364;50.766;15.338;2022-12-04T11:39:53;94916.97;;;5.12;97.92
47636;BME280;33364;50.766;15.338;2022-12-04T11:42:25;94913.25;;;5.16;98.65
47636;BME280;33364;50.766;15.338;2022-12-04T11:44:54;94907.69;;;5.10;98.19
47636;BME280;33364;50.766;15.338;2022-12-04T11:47:21;94916.97;;;5.12;98.20
47636;BME280;33364;50.766;15.338;2022-12-04T11:50:15;94905.84;;;5.12;97.87
47636;BME280;33364;50.766;15.338;2022-12-04T11:53:15;94899.53;;;5.17;98.36
47636;BME280;33364;50.766;15.338;2022-12-04T12:01:23;94900.72;;;5.26;97.78
47636;BME280;33364;50.766;15.338;2022-12-04T12:04:17;94906.88;;;5.24;97.28
47636;BME280;33364;50.766;15.338;2022-12-04T12:07:16;94900.16;;;5.21;97.67
47636;BME280;33364;50.766;15.338;2022-12-04T12:09:50;94912.81;;;5.24;97.66
47636;BME280;33364;50.766;15.338;2022-12-04T12:15:37;94905.03;;;5.11;97.58
47636;BME280;33364;50.766;15.338;2022-12-04T12:21:32;94904.75;;;5.02;97.61
47636;BME280;33364;50.766;15.338;2022-12-04T12:26:44;94896.59;;;4.95;98.13
47636;BME280;33364;50.766;15.338;2022-12-04T12:35:12;94896.59;;;4.95;98.76
47636;BME280;33364;50.766;15.338;2022-12-04T12:38:16;94897.91;;;5.02;98.81
47636;BME280;33364;50.766;15.338;2022-12-04T12:40:53;94901.00;;;5.07;98.88
47636;BME280;33364;50.766;15.338;2022-12-04T12:43:27;94897.53;;;5.08;99.10
47636;BME280;33364;50.766;15.338;2022-12-04T12:53:32;94888.63;;;5.14;98.35
47636;BME280;33364;50.766;15.338;2022-12-04T12:56:03;94892.75;;;5.16;98.49
47636;BME280;33364;50.766;15.338;2022-12-04T12:58:37;94890.00;;;5.19;99.00
47636;BME280;33364;50.766;15.338;2022-12-04T13:03:49;94891.00;;;5.17;96.80
47636;BME280;33364;50.766;15.338;2022-12-04T13:06:25;94886.63;;;5.19;97.22
47636;BME280;33364;50.766;15.338;2022-12-04T13:09:05;94878.81;;;5.20;97.37
47636;BME280;33364;50.766;15.338;2022-12-04T13:11:32;94872.50;;;5.26;97.39
47636;BME280;33364;50.766;15.338;2022-12-04T13:14:01;94883.69;;;5.25;96.85
47636;BME280;33364;50.766;15.338;2022-12-04T13:16:39;94881.00;;;5.27;96.78
47636;BME280;33364;50.766;15.338;2022-12-04T13:19:18;94887.53;;;5.32;97.12
47636;BME280;33364;50.766;15.338;2022-12-04T13:21:48;94896.88;;;5.33;96.97
47636;BME280;33364;50.766;15.338;2022-12-04T13:40:38;94872.69;;;5.23;96.35
47636;BME280;33364;50.766;15.338;2022-12-04T13:45:39;94884.88;;;5.19;97.01
47636;BME280;33364;50.766;15.338;2022-12-04T13:48:05;94883.22;;;5.18;97.24
47636;BME280;33364;50.766;15.338;2022-12-04T13:50:36;94873.13;;;5.15;96.78
47636;BME280;33364;50.766;15.338;2022-12-04T13:53:02;94886.72;;;5.17;96.82
47636;BME280;33364;50.766;15.338;2022-12-04T13:55:35;94880.94;;;5.28;96.43
47636;BME280;33364;50.766;15.338;2022-12-04T14:00:35;94883.88;;;5.22;95.98
47636;BME280;33364;50.766;15.338;2022-12-04T14:03:04;94881.94;;;5.26;96.02
47636;BME280;33364;50.766;15.338;2022-12-04T14:05:49;94886.25;;;5.11;96.26
47636;BME280;33364;50.766;15.338;2022-12-04T14:10:54;94891.66;;;5.06;96.48
47636;BME280;33364;50.766;15.338;2022-12-04T14:13:23;94883.22;;;5.04;96.59
47636;BME280;33364;50.766;15.338;2022-12-04T14:16:03;94886.63;;;5.05;96.66
47636;BME280;33364;50.766;15.338;2022-12-04T14:18:30;94894.56;;;5.00;96.27
47636;BME280;33364;50.766;15.338;2022-12-04T14:21:03;94889.72;;;4.96;96.72
47636;BME280;33364;50.766;15.338;2022-12-04T14:23:37;94898.59;;;4.90;97.46
47636;BME280;33364;50.766;15.338;2022-12-04T14:26:03;94888.25;;;4.77;97.84
47636;BME280;33364;50.766;15.338;2022-12-04T14:33:38;94891.34;;;4.68;99.18
47636;BME280;33364;50.766;15.338;2022-12-04T14:36:14;94879.34;;;4.68;98.79
47636;BME280;33364;50.766;15.338;2022-12-04T14:38:44;94885.47;;;4.66;98.41
47636;BME280;33364;50.766;15.338;2022-12-04T14:41:10;94875.31;;;4.64;98.52
47636;BME280;33364;50.766;15.338;2022-12-04T14:43:43;94874.41;;;4.65;98.86
47636;BME280;33364;50.766;15.338;2022-12-04T14:46:27;94882.34;;;4.61;98.63
47636;BME280;33364;50.766;15.338;2022-12-04T14:49:22;94879.31;;;4.54;98.79
47636;BME280;33364;50.766;15.338;2022-12-04T14:52:12;94880.41;;;4.50;98.78
47636;BME280;33364;50.766;15.338;2022-12-04T14:54:47;94892.31;;;4.51;98.56